Time;durP1;ratioP1;P1;durP2;ratioP2;P2;SDS_P1;SDS_P2;PMS_P1;PMS_P2;Temp;Humidity;BMP_temperature;BMP_pressure;BME280_temperature;BME280_humidity;BME280_pressure;Samples;Min_cycle;Max_cycle;Signal;HPM_P1;HPM_P2
2022/03/26 00:00:24;;;;;;;145.55;67.35;;;5.10;99.90;;;;;;5088933;27;20035;-81
2022/03/26 00:02:51;;;;;;;171.60;75.35;;;5.10;99.90;;;;;;5077871;27;20051;-79
2022/03/26 00:05:17;;;;;;;151.98;70.22;;;5.10;99.90;;;;;;5109955;27;20058;-78
2022/03/26 00:07:44;;;;;;;186.63;80.78;;;5.20;99.90;;;;;;5109989;27;20454;-81
2022/03/26 00:10:10;;;;;;;207.80;87.68;;;5.30;99.90;;;;;;5098455;27;20031;-80
2022/03/26 00:12:37;;;;;;;172.10;77.60;;;5.40;99.90;;;;;;5100144;27;20039;-75
2022/03/26 00:15:04;;;;;;;192.10;83.70;;;5.40;99.90;;;;;;5103829;27;20074;-77
2022/03/26 00:17:31;;;;;;;207.57;86.55;;;5.40;99.90;;;;;;5100036;27;20071;-80
2022/03/26 00:19:56;;;;;;;196.25;85.65;;;5.50;99.90;;;;;;5089960;27;20122;-78
2022/03/26 00:22:23;;;;;;;184.02;82.82;;;5.50;99.90;;;;;;5104513;27;20150;-80
2022/03/26 00:24:49;;;;;;;186.70;83.35;;;5.50;99.90;;;;;;5107455;27;20100;-78
2022/03/26 00:27:15;;;;;;;180.45;84.25;;;5.40;99.90;;;;;;5084593;27;20050;-80
2022/03/26 00:29:42;;;;;;;200.45;88.60;;;5.50;99.90;;;;;;5102576;27;20130;-76
2022/03/26 00:32:08;;;;;;;175.00;80.07;;;5.40;99.90;;;;;;5103378;27;20035;-79
2022/03/26 00:34:34;;;;;;;174.57;80.47;;;5.30;99.90;;;;;;5108890;27;20035;-76
2022/03/26 00:37:00;;;;;;;177.02;79.25;;;5.20;99.90;;;;;;5103220;27;20031;-78
2022/03/26 00:39:26;;;;;;;168.93;77.70;;;5.10;99.90;;;;;;5105557;27;20142;-77
2022/03/26 00:41:52;;;;;;;198.23;85.60;;;5.10;99.90;;;;;;5102866;27;20494;-77
2022/03/26 00:44:18;;;;;;;184.93;83.00;;;5.00;99.90;;;;;;5102121;27;20438;-76
2022/03/26 00:46:47;;;;;;;177.55;80.68;;;4.90;99.90;;;;;;5100967;27;20143;-76
2022/03/26 00:49:14;;;;;;;176.23;78.88;;;4.90;99.90;;;;;;5091539;27;20053;-74
2022/03/26 00:51:40;;;;;;;180.18;79.75;;;5.00;99.90;;;;;;5085947;27;22034;-74
2022/03/26 00:54:08;;;;;;;175.00;80.53;;;4.90;99.90;;;;;;5085969;27;20098;-77
2022/03/26 00:56:35;;;;;;;165.00;78.45;;;4.80;99.90;;;;;;5121100;27;20042;-77
2022/03/26 00:59:00;;;;;;;161.48;74.88;;;4.80;99.90;;;;;;5084390;27;20497;-79
2022/03/26 01:01:26;;;;;;;156.20;73.97;;;4.80;99.90;;;;;;5104059;27;20085;-79
2022/03/26 01:03:52;;;;;;;157.15;73.50;;;4.80;99.90;;;;;;5102935;27;20545;-78
2022/03/26 01:06:18;;;;;;;165.35;74.05;;;4.70;99.90;;;;;;5101164;27;20047;-78
2022/03/26 01:08:45;;;;;;;149.35;70.97;;;4.80;99.90;;;;;;5120335;27;20039;-78
2022/03/26 01:11:11;;;;;;;153.13;71.35;;;4.70;99.90;;;;;;5087058;27;20428;-76
2022/03/26 01:13:38;;;;;;;150.07;69.43;;;4.70;99.90;;;;;;5127318;27;20103;-78
2022/03/26 01:16:05;;;;;;;149.85;70.15;;;4.60;99.90;;;;;;5100166;27;20130;-79
2022/03/26 01:18:31;;;;;;;147.30;65.97;;;4.70;99.90;;;;;;5106618;27;20477;-76
2022/03/26 01:20:56;;;;;;;141.63;64.82;;;4.60;99.90;;;;;;5113229;27;20088;-78
2022/03/26 01:23:22;;;;;;;139.48;64.00;;;4.60;99.90;;;;;;5082278;27;20048;-81
2022/03/26 01:25:48;;;;;;;141.80;63.08;;;4.60;99.90;;;;;;5087443;27;20049;-79
2022/03/26 01:28:14;;;;;;;144.85;63.95;;;4.50;99.90;;;;;;5107571;27;22509;-78
2022/03/26 01:30:41;;;;;;;144.77;62.58;;;4.50;99.90;;;;;;5103421;27;20123;-76
2022/03/26 01:33:06;;;;;;;139.07;62.03;;;4.40;99.90;;;;;;5104417;27;20036;-77
2022/03/26 01:35:32;;;;;;;139.27;65.53;;;4.80;99.90;;;;;;5090103;27;20102;-77
2022/03/26 01:38:01;;;;;;;135.25;61.63;;;4.50;99.90;;;;;;5106613;27;20115;-82
2022/03/26 01:40:27;;;;;;;130.43;61.03;;;4.40;99.90;;;;;;5105199;27;20071;-78
2022/03/26 01:42:54;;;;;;;136.13;60.78;;;4.40;99.90;;;;;;5108522;27;20042;-78
2022/03/26 01:45:19;;;;;;;138.73;63.08;;;4.40;99.90;;;;;;5122337;27;20043;-76
2022/03/26 01:47:45;;;;;;;151.80;66.03;;;4.40;99.90;;;;;;5105324;27;20042;-79
2022/03/26 01:50:11;;;;;;;167.85;73.22;;;4.50;99.90;;;;;;5124754;27;20070;-78
2022/03/26 01:52:36;;;;;;;172.13;78.28;;;4.60;99.90;;;;;;5105096;27;20046;-76
2022/03/26 01:55:02;;;;;;;167.57;75.43;;;4.50;99.90;;;;;;5123486;27;20035;-79
2022/03/26 01:57:29;;;;;;;177.50;78.43;;;4.40;99.90;;;;;;5120284;27;20420;-78
2022/03/26 01:59:55;;;;;;;181.00;82.20;;;4.60;99.90;;;;;;5119036;27;20079;-81
2022/03/26 02:02:22;;;;;;;195.50;85.28;;;4.60;99.90;;;;;;5103601;27;20383;-83
2022/03/26 02:04:48;;;;;;;195.55;86.28;;;4.50;99.90;;;;;;5122969;27;20062;-78
2022/03/26 02:07:13;;;;;;;199.10;90.60;;;4.60;99.90;;;;;;5124255;27;20485;-77
2022/03/26 02:09:39;;;;;;;223.38;94.35;;;4.60;99.90;;;;;;5101198;27;20054;-77
2022/03/26 02:12:43;;;;;;;222.40;95.90;;;4.60;99.90;;;;;;5125022;27;20414;-75
2022/03/26 02:15:12;;;;;;;225.02;92.82;;;4.70;99.90;;;;;;5144674;27;20394;-77
2022/03/26 02:17:38;;;;;;;203.43;89.70;;;4.60;99.90;;;;;;5106232;27;20396;-82
2022/03/26 02:20:06;;;;;;;201.43;88.28;;;4.70;99.90;;;;;;5102442;27;20096;-76
2022/03/26 02:22:33;;;;;;;200.25;85.85;;;4.70;99.90;;;;;;5128579;27;20153;-78
2022/03/26 02:24:59;;;;;;;176.10;82.30;;;4.70;99.90;;;;;;5126875;27;20054;-77
2022/03/26 02:27:27;;;;;;;178.77;80.25;;;4.60;99.90;;;;;;5122677;27;20359;-78
2022/03/26 02:29:53;;;;;;;168.15;77.07;;;4.90;99.90;;;;;;5113333;27;20049;-77
2022/03/26 02:32:24;;;;;;;170.35;74.32;;;4.60;99.90;;;;;;5098476;27;20047;-76
2022/03/26 02:34:51;;;;;;;165.32;76.00;;;4.50;99.90;;;;;;5106704;27;20541;-79
2022/03/26 02:37:17;;;;;;;162.15;73.22;;;4.50;99.90;;;;;;5107826;27;20038;-80
2022/03/26 02:39:44;;;;;;;147.10;67.88;;;4.50;99.90;;;;;;5102428;27;20127;-78
2022/03/26 02:42:10;;;;;;;136.05;63.67;;;4.40;99.90;;;;;;5125753;27;20035;-79
2022/03/26 02:44:36;;;;;;;128.52;61.92;;;4.40;99.90;;;;;;5124231;27;20038;-79
2022/03/26 02:47:03;;;;;;;124.70;59.40;;;4.50;99.90;;;;;;5126895;27;20135;-76
2022/03/26 02:49:28;;;;;;;115.88;58.88;;;4.40;99.90;;;;;;5114925;27;20035;-82
2022/03/26 02:51:54;;;;;;;118.70;57.72;;;4.40;99.90;;;;;;5100944;27;20126;-80
2022/03/26 02:54:20;;;;;;;112.85;55.53;;;4.30;99.90;;;;;;5119658;27;20079;-78
2022/03/26 02:56:49;;;;;;;110.18;55.72;;;4.30;99.90;;;;;;5116164;27;20382;-79
2022/03/26 02:59:16;;;;;;;115.40;57.80;;;4.30;99.90;;;;;;5120317;27;20085;-78
2022/03/26 03:01:42;;;;;;;128.23;61.85;;;4.30;99.90;;;;;;5122223;27;20083;-80
2022/03/26 03:04:09;;;;;;;130.82;60.58;;;4.20;99.90;;;;;;5118436;27;20427;-79
2022/03/26 03:06:34;;;;;;;119.82;59.22;;;4.20;99.90;;;;;;5099994;27;20043;-79
2022/03/26 03:09:02;;;;;;;149.88;69.65;;;4.20;99.90;;;;;;5106246;27;20091;-75
2022/03/26 03:11:28;;;;;;;171.07;75.05;;;4.20;99.90;;;;;;5099270;27;20427;-79
2022/03/26 03:13:54;;;;;;;154.70;69.30;;;4.40;99.90;;;;;;5138856;27;20043;-80
2022/03/26 03:16:19;;;;;;;134.68;64.72;;;4.20;99.90;;;;;;5100189;27;20482;-80
2022/03/26 03:18:45;;;;;;;132.75;64.30;;;4.10;99.90;;;;;;5124006;27;20178;-79
2022/03/26 03:21:11;;;;;;;132.93;64.50;;;4.20;99.90;;;;;;5118970;27;20043;-80
2022/03/26 03:23:37;;;;;;;128.02;61.78;;;4.10;99.90;;;;;;5137206;27;20122;-78
2022/03/26 03:26:03;;;;;;;129.57;63.65;;;4.10;99.90;;;;;;5104134;27;20043;-77
2022/03/26 03:28:29;;;;;;;107.13;54.95;;;4.10;99.90;;;;;;5105361;28;20103;-80
2022/03/26 03:30:55;;;;;;;112.80;55.42;;;4.00;99.90;;;;;;5103694;27;20090;-79
2022/03/26 03:33:21;;;;;;;107.95;56.28;;;4.00;99.90;;;;;;5102056;27;20066;-78
2022/03/26 03:35:47;;;;;;;116.50;56.85;;;3.90;99.90;;;;;;5118907;27;20039;-78
2022/03/26 03:38:13;;;;;;;105.72;53.90;;;3.90;99.90;;;;;;5129970;27;20027;-78
2022/03/26 03:40:38;;;;;;;112.82;53.90;;;4.00;99.90;;;;;;5121765;27;20027;-79
2022/03/26 03:43:05;;;;;;;120.35;58.40;;;3.70;99.90;;;;;;5108672;27;20115;-81
2022/03/26 03:45:30;;;;;;;150.73;68.20;;;3.70;99.90;;;;;;5106842;27;20045;-80
2022/03/26 03:47:56;;;;;;;121.80;58.58;;;3.70;99.90;;;;;;5111496;27;20039;-79
2022/03/26 03:50:22;;;;;;;124.03;57.55;;;3.70;99.90;;;;;;5106640;28;20036;-81
2022/03/26 03:52:48;;;;;;;131.95;62.00;;;3.70;99.90;;;;;;5089850;27;20463;-78
2022/03/26 03:55:13;;;;;;;152.90;67.18;;;3.60;99.90;;;;;;5113128;27;20047;-81
2022/03/26 03:57:44;;;;;;;131.77;62.72;;;3.60;99.90;;;;;;5113932;27;20050;-79
2022/03/26 04:00:12;;;;;;;137.77;62.72;;;3.60;99.90;;;;;;5110000;27;20062;-80
2022/03/26 04:02:37;;;;;;;141.63;64.82;;;3.50;99.90;;;;;;5120710;27;20122;-80
2022/03/26 04:05:03;;;;;;;129.57;61.28;;;3.70;99.90;;;;;;5112581;27;20122;-81
2022/03/26 04:07:29;;;;;;;274.95;100.10;;;3.40;99.90;;;;;;5124866;27;20061;-81
2022/03/26 04:09:55;;;;;;;150.43;68.68;;;3.70;99.90;;;;;;5111049;27;20106;-80
2022/03/26 04:12:20;;;;;;;179.63;75.88;;;3.70;99.90;;;;;;5129123;27;20065;-79
2022/03/26 04:14:46;;;;;;;179.70;80.50;;;3.60;99.90;;;;;;5125918;27;20122;-74
2022/03/26 04:17:12;;;;;;;191.48;81.70;;;3.60;99.90;;;;;;5110319;27;20447;-79
2022/03/26 04:19:39;;;;;;;226.27;90.57;;;3.70;99.90;;;;;;5121440;27;20526;-79
2022/03/26 04:22:08;;;;;;;201.38;84.97;;;3.70;99.90;;;;;;5129217;27;20050;-78
2022/03/26 04:24:35;;;;;;;188.18;81.63;;;3.80;99.90;;;;;;5121389;27;20497;-81
2022/03/26 04:27:03;;;;;;;183.57;81.45;;;3.60;99.90;;;;;;5107181;27;20043;-75
2022/03/26 04:29:29;;;;;;;208.50;86.47;;;3.70;99.90;;;;;;5110138;27;20046;-79
2022/03/26 04:31:54;;;;;;;225.88;92.32;;;3.70;99.90;;;;;;5111693;27;20036;-77
2022/03/26 04:34:20;;;;;;;221.00;92.00;;;3.80;99.90;;;;;;5108850;27;20134;-79
2022/03/26 04:36:46;;;;;;;231.82;92.10;;;3.90;99.90;;;;;;5130326;27;20039;-81
2022/03/26 04:39:11;;;;;;;222.32;89.15;;;3.90;99.90;;;;;;5106955;27;20039;-81
2022/03/26 04:41:37;;;;;;;209.98;86.80;;;3.90;99.90;;;;;;5107997;27;20133;-80
2022/03/26 04:44:03;;;;;;;187.18;78.13;;;3.90;99.90;;;;;;5112539;27;20050;-80
2022/03/26 04:46:29;;;;;;;178.02;77.00;;;3.80;99.90;;;;;;5144572;27;20489;-79
2022/03/26 04:48:55;;;;;;;173.18;75.30;;;3.80;99.90;;;;;;5123637;27;20035;-76
2022/03/26 04:51:20;;;;;;;226.77;87.70;;;3.70;99.90;;;;;;5115757;27;20038;-77
2022/03/26 04:53:46;;;;;;;179.55;78.45;;;3.70;99.90;;;;;;5124994;27;20058;-79
2022/03/26 04:56:12;;;;;;;198.40;84.40;;;3.70;99.90;;;;;;5124957;27;20035;-81
2022/03/26 04:58:37;;;;;;;171.00;77.07;;;3.70;99.90;;;;;;5124070;27;20034;-76
2022/03/26 05:01:04;;;;;;;178.20;77.65;;;3.70;99.90;;;;;;5124842;27;20046;-78
2022/03/26 05:03:30;;;;;;;159.85;73.15;;;3.60;99.90;;;;;;5110531;27;20034;-76
2022/03/26 05:05:55;;;;;;;167.93;73.25;;;3.50;99.90;;;;;;5108306;27;20087;-76
2022/03/26 05:08:21;;;;;;;164.98;71.68;;;3.50;99.90;;;;;;5123906;27;20486;-79
2022/03/26 05:10:47;;;;;;;172.27;76.88;;;3.50;99.90;;;;;;5105750;27;20054;-77
2022/03/26 05:13:12;;;;;;;194.50;80.93;;;3.40;99.90;;;;;;5107307;27;20458;-76
2022/03/26 05:15:38;;;;;;;166.00;76.65;;;3.40;99.90;;;;;;5123674;27;20035;-79
2022/03/26 05:18:04;;;;;;;177.63;75.32;;;3.40;99.90;;;;;;5122630;27;20084;-76
2022/03/26 05:20:30;;;;;;;165.45;76.28;;;3.40;99.90;;;;;;5122185;27;20080;-81
2022/03/26 05:22:56;;;;;;;169.40;76.68;;;3.30;99.90;;;;;;5117858;27;20084;-78
2022/03/26 05:25:21;;;;;;;173.30;77.70;;;3.30;99.90;;;;;;5144007;27;20429;-77
2022/03/26 05:27:50;;;;;;;162.15;74.13;;;3.30;99.90;;;;;;5141707;27;20428;-79
2022/03/26 05:30:16;;;;;;;165.40;74.47;;;3.30;99.90;;;;;;5125955;27;20478;-79
2022/03/26 05:32:42;;;;;;;179.88;77.22;;;3.30;99.90;;;;;;5123022;27;20137;-78
2022/03/26 05:35:13;;;;;;;159.32;70.22;;;3.30;99.90;;;;;;5119800;27;20507;-81
2022/03/26 05:37:44;;;;;;;144.05;67.38;;;3.30;99.90;;;;;;5129851;27;20407;-78
2022/03/26 05:40:11;;;;;;;135.63;62.30;;;3.20;99.90;;;;;;5119904;27;20119;-82
2022/03/26 05:42:37;;;;;;;134.52;63.35;;;3.30;99.90;;;;;;5123897;27;20115;-79
2022/03/26 05:45:04;;;;;;;135.02;65.07;;;3.30;99.90;;;;;;5125330;27;20375;-77
2022/03/26 05:47:31;;;;;;;138.20;63.33;;;3.30;99.90;;;;;;5128416;27;20043;-78
2022/03/26 05:49:57;;;;;;;142.23;63.83;;;3.30;99.90;;;;;;5118335;27;20081;-79
2022/03/26 05:52:22;;;;;;;137.25;64.75;;;3.40;99.90;;;;;;5106507;27;20051;-78
2022/03/26 05:54:48;;;;;;;134.15;62.42;;;3.40;99.90;;;;;;5116532;27;20079;-79
2022/03/26 05:57:14;;;;;;;138.77;64.82;;;3.40;99.90;;;;;;5122196;27;20110;-80
2022/03/26 05:59:39;;;;;;;151.90;67.55;;;3.40;99.90;;;;;;5126284;27;20038;-80
2022/03/26 06:02:05;;;;;;;191.23;78.35;;;3.40;99.90;;;;;;5101837;27;20039;-79
2022/03/26 06:04:31;;;;;;;178.98;77.20;;;3.50;99.90;;;;;;5122539;27;20486;-80
2022/03/26 06:06:56;;;;;;;205.57;82.32;;;3.60;99.90;;;;;;5109420;27;20124;-77
2022/03/26 06:09:22;;;;;;;191.43;80.10;;;3.70;99.90;;;;;;5122891;27;20114;-79
2022/03/26 06:11:48;;;;;;;194.65;81.18;;;3.80;99.90;;;;;;5108090;27;20039;-77
2022/03/26 06:14:17;;;;;;;185.20;76.70;;;3.90;99.90;;;;;;5104831;28;20040;-79
2022/03/26 06:16:44;;;;;;;183.73;76.95;;;3.90;99.90;;;;;;5104541;27;20087;-81
2022/03/26 06:19:11;;;;;;;207.30;81.22;;;3.90;99.90;;;;;;5117076;27;20039;-80
2022/03/26 06:21:36;;;;;;;176.98;77.82;;;4.20;99.90;;;;;;5123714;27;20059;-78
2022/03/26 06:24:02;;;;;;;197.23;79.65;;;4.00;99.90;;;;;;5115371;27;20419;-78
2022/03/26 06:26:28;;;;;;;206.55;78.93;;;4.00;99.90;;;;;;5100413;27;20051;-79
2022/03/26 06:28:54;;;;;;;152.85;65.95;;;4.10;99.90;;;;;;5109877;27;20051;-83
2022/03/26 06:31:20;;;;;;;195.52;79.05;;;4.20;99.90;;;;;;5110807;27;20046;-80
2022/03/26 06:33:46;;;;;;;207.00;80.55;;;4.20;99.90;;;;;;5119768;27;20382;-82
2022/03/26 06:36:13;;;;;;;196.35;80.45;;;4.30;99.90;;;;;;5114383;27;20035;-82
2022/03/26 06:38:41;;;;;;;217.65;84.40;;;4.30;99.90;;;;;;5111616;27;20050;-79
2022/03/26 06:41:10;;;;;;;228.60;89.15;;;4.40;99.90;;;;;;5104544;27;20502;-82
2022/03/26 06:43:37;;;;;;;238.32;93.47;;;4.40;99.90;;;;;;5091926;27;20351;-86
2022/03/26 06:46:04;;;;;;;240.73;92.85;;;4.60;99.90;;;;;;5108769;27;20393;-78
2022/03/26 06:48:30;;;;;;;236.35;94.25;;;4.60;99.90;;;;;;5109730;27;20066;-79
2022/03/26 06:50:57;;;;;;;232.45;92.65;;;4.80;99.90;;;;;;5099728;27;20047;-83
2022/03/26 06:53:22;;;;;;;236.98;93.50;;;4.80;99.90;;;;;;5131686;27;20087;-78
2022/03/26 06:55:49;;;;;;;229.43;91.03;;;4.90;99.90;;;;;;5111951;27;20047;-81
2022/03/26 06:59:05;;;;;;;236.63;94.25;;;5.00;99.90;;;;;;5108687;27;20071;-76
2022/03/26 07:01:32;;;;;;;231.48;93.18;;;5.10;99.90;;;;;;5092164;27;20035;-85
2022/03/26 07:03:58;;;;;;;231.32;92.68;;;5.30;99.90;;;;;;5103789;27;20437;-77
2022/03/26 07:06:24;;;;;;;240.43;93.47;;;5.40;99.90;;;;;;5116762;27;20121;-78
2022/03/26 07:08:49;;;;;;;226.60;93.47;;;5.50;99.90;;;;;;5109616;27;20098;-83
2022/03/26 07:11:16;;;;;;;231.60;94.18;;;5.70;99.90;;;;;;5107359;27;20038;-80
2022/03/26 07:13:41;;;;;;;218.38;89.72;;;5.80;99.90;;;;;;5098546;28;20038;-76
2022/03/26 07:16:07;;;;;;;211.82;87.93;;;5.80;99.90;;;;;;5124255;27;20121;-80
2022/03/26 07:18:34;;;;;;;203.93;83.22;;;5.90;99.90;;;;;;5123071;27;20481;-79
2022/03/26 07:21:00;;;;;;;197.77;86.85;;;6.10;99.90;;;;;;5119590;27;20034;-83
2022/03/26 07:23:27;;;;;;;205.35;86.32;;;6.20;99.90;;;;;;5099629;27;20042;-81
2022/03/26 07:25:53;;;;;;;194.27;84.72;;;6.20;99.90;;;;;;5119677;27;20073;-76
2022/03/26 07:28:19;;;;;;;191.65;81.88;;;6.60;99.90;;;;;;5118400;27;20502;-85
2022/03/26 07:30:44;;;;;;;189.48;83.72;;;6.40;99.90;;;;;;5126453;27;20050;-82
2022/03/26 07:33:10;;;;;;;196.02;83.28;;;6.50;99.90;;;;;;5147876;27;20117;-80
2022/03/26 07:35:36;;;;;;;188.00;79.90;;;6.50;99.90;;;;;;5122760;27;20412;-79
2022/03/26 07:38:01;;;;;;;194.68;82.93;;;6.80;99.90;;;;;;5117839;27;20030;-79
2022/03/26 07:40:28;;;;;;;186.95;82.07;;;6.90;99.90;;;;;;5098152;27;20035;-80
2022/03/26 07:42:54;;;;;;;180.43;78.93;;;7.00;99.90;;;;;;5087306;27;20358;-81
2022/03/26 07:45:19;;;;;;;176.95;77.35;;;7.10;99.90;;;;;;5093393;28;20086;-77
2022/03/26 07:47:45;;;;;;;177.05;79.20;;;7.30;99.90;;;;;;5112811;28;20394;-79
2022/03/26 07:50:11;;;;;;;171.55;74.88;;;7.30;99.90;;;;;;5110844;27;20382;-79
2022/03/26 07:52:36;;;;;;;171.27;74.40;;;7.40;99.90;;;;;;5094770;28;20042;-80
2022/03/26 07:55:03;;;;;;;169.63;75.43;;;7.50;99.90;;;;;;5113781;27;20039;-79
2022/03/26 07:57:29;;;;;;;147.40;67.18;;;7.60;99.90;;;;;;5121298;27;20031;-84
2022/03/26 07:59:54;;;;;;;148.00;68.60;;;7.70;99.90;;;;;;5116282;27;20394;-81
2022/03/26 08:02:20;;;;;;;141.70;66.43;;;7.80;99.90;;;;;;5121294;27;20081;-79
2022/03/26 08:04:46;;;;;;;136.52;63.70;;;8.00;99.90;;;;;;5121698;27;20046;-79
2022/03/26 08:07:12;;;;;;;137.73;64.43;;;8.10;99.90;;;;;;5121733;28;20044;-77
2022/03/26 08:09:38;;;;;;;141.90;65.90;;;8.20;99.90;;;;;;5102018;28;20039;-81
2022/03/26 08:12:05;;;;;;;134.07;62.80;;;8.40;99.90;;;;;;5103005;28;20506;-77
2022/03/26 08:14:33;;;;;;;137.20;63.45;;;8.50;99.90;;;;;;5099267;28;20047;-78
2022/03/26 08:16:58;;;;;;;128.70;61.83;;;8.70;99.90;;;;;;5118246;28;20132;-85
2022/03/26 08:19:24;;;;;;;126.60;63.28;;;9.10;99.90;;;;;;5088656;27;20126;-84
2022/03/26 08:21:50;;;;;;;126.50;63.60;;;8.90;99.90;;;;;;5111558;27;20431;-79
2022/03/26 08:24:16;;;;;;;113.78;57.00;;;9.10;99.90;;;;;;5115514;27;20049;-81
2022/03/26 08:26:42;;;;;;;118.80;56.15;;;9.20;99.90;;;;;;5095015;27;20047;-81
2022/03/26 08:29:07;;;;;;;114.22;58.45;;;9.40;99.90;;;;;;5109911;27;20055;-83
2022/03/26 08:31:33;;;;;;;117.75;56.20;;;9.60;99.90;;;;;;5102035;27;20054;-76
2022/03/26 08:34:02;;;;;;;109.22;56.53;;;9.60;99.90;;;;;;5117636;27;20027;-85
2022/03/26 08:36:28;;;;;;;109.82;51.67;;;9.80;99.90;;;;;;5115526;27;20437;-79
2022/03/26 08:39:04;;;;;;;102.95;52.67;;;10.00;99.90;;;;;;5101339;27;20058;-81
2022/03/26 08:41:30;;;;;;;104.72;54.90;;;10.00;99.90;;;;;;5126970;27;20060;-80
2022/03/26 08:44:00;;;;;;;110.72;53.22;;;10.10;99.90;;;;;;5105771;27;20027;-84
2022/03/26 08:46:25;;;;;;;103.28;53.38;;;10.20;99.90;;;;;;5120943;27;20043;-75
2022/03/26 08:48:51;;;;;;;108.72;55.28;;;10.30;99.90;;;;;;5123554;27;20037;-76
2022/03/26 08:51:18;;;;;;;99.07;51.90;;;10.30;99.90;;;;;;5101589;27;20035;-85
2022/03/26 08:53:44;;;;;;;101.05;51.08;;;10.50;99.90;;;;;;5103357;27;20051;-78
2022/03/26 08:56:11;;;;;;;87.80;46.08;;;10.60;99.90;;;;;;5127925;27;20099;-79
2022/03/26 08:58:37;;;;;;;99.97;50.20;;;10.70;99.90;;;;;;5109061;27;20099;-76
2022/03/26 09:01:07;;;;;;;98.40;51.35;;;10.80;99.90;;;;;;5110318;27;20051;-75
2022/03/26 09:03:37;;;;;;;96.38;50.08;;;10.90;99.90;;;;;;5116079;27;20131;-81
2022/03/26 09:06:06;;;;;;;94.53;50.05;;;10.90;99.90;;;;;;5116112;27;20070;-82
2022/03/26 09:08:35;;;;;;;99.70;51.03;;;11.00;99.90;;;;;;5099667;27;20055;-82
2022/03/26 09:11:03;;;;;;;88.53;51.70;;;11.10;99.90;;;;;;5115290;27;20035;-79
2022/03/26 09:13:28;;;;;;;87.60;50.60;;;11.40;99.90;;;;;;5099640;27;20046;-81
2022/03/26 09:15:54;;;;;;;81.93;48.28;;;11.30;99.90;;;;;;5134460;27;20346;-79
2022/03/26 09:18:22;;;;;;;73.60;40.72;;;11.50;99.90;;;;;;5113540;28;20517;-82
2022/03/26 09:20:48;;;;;;;66.85;38.63;;;11.50;99.90;;;;;;5130228;27;20442;-80
2022/03/26 09:23:14;;;;;;;67.45;39.28;;;11.70;99.90;;;;;;5099507;27;20118;-82
2022/03/26 09:25:41;;;;;;;62.33;37.13;;;11.70;99.90;;;;;;5098520;27;20054;-77
2022/03/26 09:28:07;;;;;;;46.97;28.50;;;12.20;99.90;;;;;;5115168;27;20103;-81
2022/03/26 09:30:33;;;;;;;46.08;26.88;;;12.00;99.90;;;;;;5114334;27;20141;-82
2022/03/26 09:32:59;;;;;;;54.60;30.95;;;12.10;99.90;;;;;;5098229;27;20035;-79
2022/03/26 09:35:25;;;;;;;39.28;25.90;;;12.20;99.90;;;;;;5115890;27;20502;-81
2022/03/26 09:37:52;;;;;;;39.42;24.45;;;12.30;99.90;;;;;;5116166;27;20058;-79
2022/03/26 09:40:22;;;;;;;40.33;23.27;;;12.50;99.90;;;;;;5115183;27;20031;-77
2022/03/26 09:42:49;;;;;;;40.03;20.33;;;12.60;99.90;;;;;;5115293;27;20182;-76
2022/03/26 09:45:15;;;;;;;37.55;21.83;;;12.60;99.90;;;;;;5115654;27;20174;-79
2022/03/26 09:47:41;;;;;;;36.13;21.00;;;12.70;99.90;;;;;;5116022;27;20174;-82
2022/03/26 09:50:08;;;;;;;29.00;17.15;;;12.80;99.90;;;;;;5115074;27;20043;-78
2022/03/26 09:52:35;;;;;;;31.05;17.60;;;12.90;99.90;;;;;;5109053;27;20049;-81
2022/03/26 09:55:03;;;;;;;29.08;18.02;;;12.90;99.90;;;;;;5099039;27;20043;-80
2022/03/26 09:57:29;;;;;;;28.88;16.73;;;12.90;99.90;;;;;;5118672;27;20092;-82
2022/03/26 09:59:56;;;;;;;26.85;16.23;;;13.00;99.90;;;;;;5121857;27;20039;-79
2022/03/26 10:02:22;;;;;;;35.22;18.65;;;13.10;99.90;;;;;;5139770;27;20489;-78
2022/03/26 10:04:47;;;;;;;27.42;17.45;;;13.20;99.90;;;;;;5122795;27;20039;-76
2022/03/26 10:07:13;;;;;;;26.45;17.17;;;13.30;99.90;;;;;;5140912;27;20039;-79
2022/03/26 10:09:45;;;;;;;21.63;13.23;;;13.40;99.90;;;;;;5107687;27;20047;-81
2022/03/26 10:12:27;;;;;;;26.73;14.25;;;13.50;99.90;;;;;;5110108;27;20130;-83
2022/03/26 10:14:59;;;;;;;18.92;12.23;;;13.60;99.90;;;;;;5083993;27;20047;-80
2022/03/26 10:17:30;;;;;;;19.55;11.70;;;13.70;99.90;;;;;;5097983;27;20141;-76
2022/03/26 10:20:03;;;;;;;19.65;11.95;;;13.80;99.90;;;;;;5095135;28;20039;-81
2022/03/26 10:22:35;;;;;;;19.88;13.55;;;13.90;99.90;;;;;;5090895;27;20042;-81
2022/03/26 10:25:17;;;;;;;21.60;13.88;;;14.00;99.90;;;;;;5114313;27;20502;-82
2022/03/26 10:27:45;;;;;;;20.63;13.05;;;14.00;99.90;;;;;;5114859;27;20152;-81
2022/03/26 10:30:13;;;;;;;26.15;14.23;;;14.10;99.90;;;;;;5115076;27;20046;-76
2022/03/26 10:32:43;;;;;;;23.92;14.70;;;14.30;99.90;;;;;;5097876;27;20050;-85
2022/03/26 10:35:11;;;;;;;23.75;14.30;;;14.40;99.90;;;;;;5133365;27;20122;-80
2022/03/26 10:37:51;;;;;;;18.70;11.70;;;14.50;99.90;;;;;;5114710;27;20042;-81
2022/03/26 10:40:23;;;;;;;17.67;11.73;;;14.60;99.90;;;;;;5097043;27;20073;-83
2022/03/26 10:43:13;;;;;;;20.92;11.05;;;14.70;99.90;;;;;;5098229;27;20031;-82
2022/03/26 10:45:50;;;;;;;11.00;7.22;;;14.70;99.90;;;;;;5012934;28;20516;-83
2022/03/26 10:48:24;;;;;;;13.57;7.28;;;14.80;99.90;;;;;;5026320;28;20693;-78
2022/03/26 10:50:55;;;;;;;14.80;7.20;;;14.90;99.90;;;;;;5013310;28;20053;-79
2022/03/26 10:53:21;;;;;;;11.95;7.43;;;15.00;99.90;;;;;;4996619;28;20042;-80
2022/03/26 10:55:48;;;;;;;11.05;7.18;;;15.00;99.90;;;;;;5013191;28;20070;-77
2022/03/26 10:58:15;;;;;;;12.23;6.97;;;15.00;99.90;;;;;;4998274;28;20053;-81
2022/03/26 11:00:43;;;;;;;12.15;7.10;;;15.10;99.90;;;;;;5000844;28;20116;-85
2022/03/26 11:03:09;;;;;;;11.00;7.18;;;15.20;99.90;;;;;;4998258;28;20135;-85
2022/03/26 11:05:36;;;;;;;11.60;7.28;;;15.30;99.90;;;;;;4998034;28;20049;-81
2022/03/26 11:08:03;;;;;;;14.45;7.38;;;15.20;99.90;;;;;;4998893;28;20083;-78
2022/03/26 11:10:30;;;;;;;11.85;7.43;;;15.20;99.90;;;;;;5030296;28;20081;-82
2022/03/26 11:12:58;;;;;;;10.18;6.68;;;15.60;99.90;;;;;;4997822;28;20049;-81
2022/03/26 11:15:31;;;;;;;12.10;5.85;;;15.60;99.90;;;;;;5013598;28;20449;-83
2022/03/26 11:18:08;;;;;;;11.07;6.70;;;15.50;99.90;;;;;;5013301;28;20116;-84
2022/03/26 11:20:58;;;;;;;8.15;5.47;;;15.30;99.90;;;;;;5032065;28;20047;-81
2022/03/26 11:24:10;;;;;;;10.38;5.82;;;15.30;99.90;;;;;;5085736;28;20058;-85
2022/03/26 11:27:04;;;;;;;9.30;5.90;;;15.40;99.90;;;;;;5078816;28;20044;-82
2022/03/26 11:29:45;;;;;;;11.23;5.75;;;15.50;99.90;;;;;;5087268;28;20091;-86
2022/03/26 11:32:23;;;;;;;7.82;5.10;;;15.80;99.90;;;;;;5097309;28;20138;-82
2022/03/26 11:35:10;;;;;;;8.23;5.13;;;15.80;99.90;;;;;;5089695;28;20111;-79
2022/03/26 11:37:57;;;;;;;8.30;5.47;;;15.70;99.90;;;;;;5114671;28;20498;-86
2022/03/26 11:40:43;;;;;;;9.20;4.72;;;15.80;99.90;;;;;;5097836;28;20126;-80
2022/03/26 11:43:18;;;;;;;8.10;4.32;;;15.70;99.90;;;;;;5114067;28;20054;-81
2022/03/26 11:51:27;;;;;;;6.95;4.25;;;15.80;99.90;;;;;;5104569;28;20058;-83
2022/03/26 11:54:05;;;;;;;6.78;4.43;;;15.70;99.90;;;;;;5107472;28;20032;-83
2022/03/26 11:57:06;;;;;;;8.00;4.82;;;15.80;99.90;;;;;;5113798;27;20505;-85
2022/03/26 11:59:36;;;;;;;5.68;4.05;;;15.50;99.90;;;;;;5113434;27;20063;-81
2022/03/26 12:02:28;;;;;;;5.90;4.20;;;15.60;99.90;;;;;;5134423;27;20031;-78
2022/03/26 12:04:57;;;;;;;8.93;4.55;;;16.10;99.90;;;;;;5117050;27;20043;-79
2022/03/26 12:07:27;;;;;;;6.65;4.53;;;16.10;99.90;;;;;;5112214;27;20051;-78
2022/03/26 12:10:12;;;;;;;7.20;4.55;;;15.90;99.90;;;;;;5116564;27;20043;-82
2022/03/26 12:13:00;;;;;;;8.18;5.03;;;15.60;99.90;;;;;;5095747;28;20078;-83
2022/03/26 12:15:28;;;;;;;11.27;5.95;;;15.50;99.90;;;;;;5097450;27;20047;-85
2022/03/26 12:18:13;;;;;;;9.07;6.00;;;15.50;99.90;;;;;;5114339;27;20035;-85
2022/03/26 12:20:46;;;;;;;8.88;5.70;;;15.30;99.90;;;;;;5096958;27;20035;-80
2022/03/26 12:23:28;;;;;;;8.85;5.82;;;15.60;99.90;;;;;;5096442;27;20035;-81
2022/03/26 12:26:00;;;;;;;7.28;5.43;;;15.40;99.90;;;;;;5104435;28;20052;-83
2022/03/26 12:28:26;;;;;;;10.32;5.03;;;15.50;99.90;;;;;;5110975;28;20043;-77
2022/03/26 12:30:54;;;;;;;10.32;4.85;;;15.60;99.90;;;;;;5111292;28;20121;-78
2022/03/26 12:33:21;;;;;;;7.20;4.63;;;15.50;99.90;;;;;;5100718;28;20086;-83
2022/03/26 12:35:52;;;;;;;8.00;4.47;;;15.40;99.90;;;;;;5081822;28;20044;-83
2022/03/26 12:38:19;;;;;;;9.80;4.72;;;15.20;99.90;;;;;;5095711;28;20040;-78